sensor_id;sensor_type;location;lat;lon;timestamp;P1;durP1;ratioP1;P2;durP2;ratioP2
22270;SDS011;11304;53.520;10.104;2022-08-25T00:02:25;7.55;;;4.50;;
22270;SDS011;11304;53.520;10.104;2022-08-25T00:04:52;7.82;;;4.32;;
22270;SDS011;11304;53.520;10.104;2022-08-25T00:07:19;6.95;;;4.50;;
22270;SDS011;11304;53.520;10.104;2022-08-25T00:09:45;8.00;;;5.03;;
22270;SDS011;11304;53.520;10.104;2022-08-25T00:12:11;11.48;;;4.47;;
22270;SDS011;11304;53.520;10.104;2022-08-25T00:14:37;8.23;;;5.13;;
22270;SDS011;11304;53.520;10.104;2022-08-25T00:17:04;8.98;;;4.28;;
22270;SDS011;11304;53.520;10.104;2022-08-25T00:19:33;8.32;;;4.30;;
22270;SDS011;11304;53.520;10.104;2022-08-25T00:21:59;6.43;;;4.40;;
22270;SDS011;11304;53.520;10.104;2022-08-25T00:24:26;6.90;;;4.43;;
22270;SDS011;11304;53.520;10.104;2022-08-25T00:26:54;8.65;;;4.68;;
22270;SDS011;11304;53.520;10.104;2022-08-25T00:29:21;6.45;;;4.55;;
22270;SDS011;11304;53.520;10.104;2022-08-25T00:31:49;7.35;;;4.55;;
22270;SDS011;11304;53.520;10.104;2022-08-25T00:34:19;7.63;;;5.10;;
22270;SDS011;11304;53.520;10.104;2022-08-25T00:36:46;7.80;;;4.72;;
22270;SDS011;11304;53.520;10.104;2022-08-25T00:39:16;8.73;;;5.10;;
22270;SDS011;11304;53.520;10.104;2022-08-25T00:41:44;9.50;;;4.75;;
22270;SDS011;11304;53.520;10.104;2022-08-25T00:44:12;5.57;;;4.55;;
22270;SDS011;11304;53.520;10.104;2022-08-25T00:46:53;10.60;;;5.30;;
22270;SDS011;11304;53.520;10.104;2022-08-25T00:49:25;8.90;;;4.93;;
22270;SDS011;11304;53.520;10.104;2022-08-25T00:52:03;6.88;;;4.80;;
22270;SDS011;11304;53.520;10.104;2022-08-25T00:54:31;9.20;;;5.25;;
22270;SDS011;11304;53.520;10.104;2022-08-25T00:56:58;6.13;;;4.78;;
22270;SDS011;11304;53.520;10.104;2022-08-25T00:59:25;8.00;;;5.13;;
22270;SDS011;11304;53.520;10.104;2022-08-25T01:01:51;8.10;;;5.15;;
22270;SDS011;11304;53.520;10.104;2022-08-25T01:04:18;10.55;;;4.97;;
22270;SDS011;11304;53.520;10.104;2022-08-25T01:06:44;10.30;;;5.65;;
22270;SDS011;11304;53.520;10.104;2022-08-25T01:11:39;8.77;;;5.25;;
22270;SDS011;11304;53.520;10.104;2022-08-25T01:14:05;8.18;;;5.22;;
22270;SDS011;11304;53.520;10.104;2022-08-25T01:16:33;11.00;;;5.72;;
22270;SDS011;11304;53.520;10.104;2022-08-25T01:18:59;7.28;;;4.80;;
22270;SDS011;11304;53.520;10.104;2022-08-25T01:21:27;9.55;;;5.55;;
22270;SDS011;11304;53.520;10.104;2022-08-25T01:23:54;9.88;;;5.50;;
22270;SDS011;11304;53.520;10.104;2022-08-25T01:26:25;9.60;;;5.00;;
22270;SDS011;11304;53.520;10.104;2022-08-25T01:28:52;10.93;;;5.90;;
22270;SDS011;11304;53.520;10.104;2022-08-25T01:31:37;6.70;;;5.22;;
22270;SDS011;11304;53.520;10.104;2022-08-25T01:34:04;7.90;;;5.60;;
22270;SDS011;11304;53.520;10.104;2022-08-25T01:36:31;9.30;;;5.97;;
22270;SDS011;11304;53.520;10.104;2022-08-25T01:38:58;8.95;;;5.57;;
22270;SDS011;11304;53.520;10.104;2022-08-25T01:44:00;8.45;;;5.70;;
22270;SDS011;11304;53.520;10.104;2022-08-25T01:46:26;10.93;;;5.68;;
22270;SDS011;11304;53.520;10.104;2022-08-25T01:48:52;10.73;;;5.65;;
22270;SDS011;11304;53.520;10.104;2022-08-25T01:51:19;9.13;;;5.70;;
22270;SDS011;11304;53.520;10.104;2022-08-25T01:53:46;10.48;;;6.05;;
22270;SDS011;11304;53.520;10.104;2022-08-25T01:56:13;8.25;;;5.70;;
22270;SDS011;11304;53.520;10.104;2022-08-25T01:58:41;8.13;;;4.97;;
22270;SDS011;11304;53.520;10.104;2022-08-25T02:01:08;11.25;;;5.82;;
22270;SDS011;11304;53.520;10.104;2022-08-25T02:03:36;9.85;;;5.88;;
22270;SDS011;11304;53.520;10.104;2022-08-25T02:06:02;8.27;;;6.30;;
22270;SDS011;11304;53.520;10.104;2022-08-25T02:08:29;9.68;;;6.35;;
22270;SDS011;11304;53.520;10.104;2022-08-25T02:10:55;8.13;;;6.32;;
22270;SDS011;11304;53.520;10.104;2022-08-25T02:13:22;7.85;;;6.18;;
22270;SDS011;11304;53.520;10.104;2022-08-25T02:15:49;8.90;;;6.03;;
22270;SDS011;11304;53.520;10.104;2022-08-25T02:18:17;10.23;;;6.22;;
22270;SDS011;11304;53.520;10.104;2022-08-25T02:20:43;9.63;;;5.90;;
22270;SDS011;11304;53.520;10.104;2022-08-25T02:23:10;9.98;;;6.03;;
22270;SDS011;11304;53.520;10.104;2022-08-25T02:25:37;9.27;;;5.90;;
22270;SDS011;11304;53.520;10.104;2022-08-25T02:28:03;8.27;;;6.22;;
22270;SDS011;11304;53.520;10.104;2022-08-25T02:30:31;8.65;;;6.22;;
22270;SDS011;11304;53.520;10.104;2022-08-25T02:32:57;8.30;;;5.78;;
22270;SDS011;11304;53.520;10.104;2022-08-25T02:35:24;10.77;;;6.20;;
22270;SDS011;11304;53.520;10.104;2022-08-25T02:37:50;9.65;;;6.40;;
22270;SDS011;11304;53.520;10.104;2022-08-25T02:40:17;10.73;;;6.65;;
22270;SDS011;11304;53.520;10.104;2022-08-25T02:42:45;9.15;;;6.70;;
22270;SDS011;11304;53.520;10.104;2022-08-25T02:45:11;7.88;;;6.60;;
22270;SDS011;11304;53.520;10.104;2022-08-25T02:47:38;7.95;;;6.68;;
22270;SDS011;11304;53.520;10.104;2022-08-25T02:50:04;10.65;;;6.70;;
22270;SDS011;11304;53.520;10.104;2022-08-25T02:52:30;8.98;;;6.70;;
22270;SDS011;11304;53.520;10.104;2022-08-25T02:54:56;11.82;;;6.68;;
22270;SDS011;11304;53.520;10.104;2022-08-25T02:57:23;10.52;;;6.80;;
22270;SDS011;11304;53.520;10.104;2022-08-25T02:59:50;8.82;;;6.80;;
22270;SDS011;11304;53.520;10.104;2022-08-25T03:02:16;9.90;;;6.53;;
22270;SDS011;11304;53.520;10.104;2022-08-25T03:04:43;9.32;;;6.60;;
22270;SDS011;11304;53.520;10.104;2022-08-25T03:07:09;11.65;;;6.72;;
22270;SDS011;11304;53.520;10.104;2022-08-25T03:09:36;12.68;;;7.55;;
22270;SDS011;11304;53.520;10.104;2022-08-25T03:12:03;9.90;;;7.10;;
22270;SDS011;11304;53.520;10.104;2022-08-25T03:14:29;8.40;;;6.50;;
22270;SDS011;11304;53.520;10.104;2022-08-25T03:16:55;13.30;;;7.07;;
22270;SDS011;11304;53.520;10.104;2022-08-25T03:19:21;9.02;;;6.80;;
22270;SDS011;11304;53.520;10.104;2022-08-25T03:21:48;10.98;;;6.65;;
22270;SDS011;11304;53.520;10.104;2022-08-25T03:24:16;13.93;;;7.28;;
22270;SDS011;11304;53.520;10.104;2022-08-25T03:26:42;11.80;;;6.78;;
22270;SDS011;11304;53.520;10.104;2022-08-25T03:29:17;11.25;;;6.78;;
22270;SDS011;11304;53.520;10.104;2022-08-25T03:31:44;10.75;;;7.07;;
22270;SDS011;11304;53.520;10.104;2022-08-25T03:34:11;10.05;;;7.13;;
22270;SDS011;11304;53.520;10.104;2022-08-25T03:36:37;16.25;;;7.43;;
22270;SDS011;11304;53.520;10.104;2022-08-25T03:39:03;11.30;;;7.07;;
22270;SDS011;11304;53.520;10.104;2022-08-25T03:41:30;14.02;;;7.40;;
22270;SDS011;11304;53.520;10.104;2022-08-25T03:43:57;13.40;;;7.30;;
22270;SDS011;11304;53.520;10.104;2022-08-25T03:46:27;27.52;;;8.13;;
22270;SDS011;11304;53.520;10.104;2022-08-25T03:48:54;20.58;;;7.60;;
22270;SDS011;11304;53.520;10.104;2022-08-25T03:51:22;18.35;;;7.82;;
22270;SDS011;11304;53.520;10.104;2022-08-25T03:53:48;13.30;;;6.88;;
22270;SDS011;11304;53.520;10.104;2022-08-25T03:56:15;12.80;;;7.75;;
22270;SDS011;11304;53.520;10.104;2022-08-25T03:58:41;17.42;;;8.57;;
22270;SDS011;11304;53.520;10.104;2022-08-25T04:01:07;14.55;;;7.25;;
22270;SDS011;11304;53.520;10.104;2022-08-25T04:03:34;20.30;;;7.90;;
22270;SDS011;11304;53.520;10.104;2022-08-25T04:06:03;11.20;;;7.68;;
22270;SDS011;11304;53.520;10.104;2022-08-25T04:08:30;9.95;;;7.50;;
22270;SDS011;11304;53.520;10.104;2022-08-25T04:10:56;11.48;;;7.15;;
22270;SDS011;11304;53.520;10.104;2022-08-25T04:13:22;23.15;;;7.75;;
22270;SDS011;11304;53.520;10.104;2022-08-25T04:15:48;17.42;;;8.15;;
22270;SDS011;11304;53.520;10.104;2022-08-25T04:18:14;37.78;;;9.23;;
22270;SDS011;11304;53.520;10.104;2022-08-25T04:20:41;17.95;;;8.02;;
22270;SDS011;11304;53.520;10.104;2022-08-25T04:23:08;11.70;;;8.60;;
22270;SDS011;11304;53.520;10.104;2022-08-25T04:25:34;10.07;;;7.60;;
22270;SDS011;11304;53.520;10.104;2022-08-25T04:28:00;14.77;;;7.88;;
22270;SDS011;11304;53.520;10.104;2022-08-25T04:30:27;28.42;;;9.82;;
22270;SDS011;11304;53.520;10.104;2022-08-25T04:32:53;14.23;;;7.85;;
22270;SDS011;11304;53.520;10.104;2022-08-25T04:35:19;12.73;;;8.70;;
22270;SDS011;11304;53.520;10.104;2022-08-25T04:37:46;14.75;;;8.32;;
22270;SDS011;11304;53.520;10.104;2022-08-25T04:40:13;13.05;;;7.80;;
22270;SDS011;11304;53.520;10.104;2022-08-25T04:42:39;14.32;;;7.78;;
22270;SDS011;11304;53.520;10.104;2022-08-25T04:45:05;13.90;;;7.90;;
22270;SDS011;11304;53.520;10.104;2022-08-25T04:47:35;16.38;;;7.95;;
22270;SDS011;11304;53.520;10.104;2022-08-25T04:50:01;16.98;;;8.93;;
22270;SDS011;11304;53.520;10.104;2022-08-25T04:52:28;13.45;;;8.20;;
22270;SDS011;11304;53.520;10.104;2022-08-25T04:54:54;12.77;;;7.60;;
22270;SDS011;11304;53.520;10.104;2022-08-25T04:57:20;9.50;;;6.97;;
22270;SDS011;11304;53.520;10.104;2022-08-25T04:59:46;16.50;;;8.07;;
22270;SDS011;11304;53.520;10.104;2022-08-25T05:02:12;12.88;;;7.60;;
22270;SDS011;11304;53.520;10.104;2022-08-25T05:04:39;10.50;;;8.02;;
22270;SDS011;11304;53.520;10.104;2022-08-25T05:07:05;10.73;;;6.68;;
22270;SDS011;11304;53.520;10.104;2022-08-25T05:09:31;10.40;;;7.20;;
22270;SDS011;11304;53.520;10.104;2022-08-25T05:11:59;12.52;;;8.20;;
22270;SDS011;11304;53.520;10.104;2022-08-25T05:14:25;10.60;;;7.45;;
22270;SDS011;11304;53.520;10.104;2022-08-25T05:16:51;11.23;;;9.13;;
22270;SDS011;11304;53.520;10.104;2022-08-25T05:19:17;14.45;;;9.73;;
22270;SDS011;11304;53.520;10.104;2022-08-25T05:21:43;13.05;;;9.73;;
22270;SDS011;11304;53.520;10.104;2022-08-25T05:24:09;17.83;;;10.70;;
22270;SDS011;11304;53.520;10.104;2022-08-25T05:26:35;15.82;;;10.80;;
22270;SDS011;11304;53.520;10.104;2022-08-25T05:29:02;15.10;;;11.48;;
22270;SDS011;11304;53.520;10.104;2022-08-25T05:31:29;15.10;;;11.43;;
22270;SDS011;11304;53.520;10.104;2022-08-25T05:33:56;17.38;;;11.05;;
22270;SDS011;11304;53.520;10.104;2022-08-25T05:36:23;19.48;;;13.15;;
22270;SDS011;11304;53.520;10.104;2022-08-25T05:38:50;20.17;;;13.90;;
22270;SDS011;11304;53.520;10.104;2022-08-25T05:41:18;19.88;;;13.82;;
22270;SDS011;11304;53.520;10.104;2022-08-25T05:43:46;18.92;;;13.95;;
22270;SDS011;11304;53.520;10.104;2022-08-25T05:46:13;18.50;;;14.73;;
22270;SDS011;11304;53.520;10.104;2022-08-25T05:48:39;23.45;;;14.65;;
22270;SDS011;11304;53.520;10.104;2022-08-25T05:51:06;24.70;;;14.77;;
22270;SDS011;11304;53.520;10.104;2022-08-25T05:53:34;19.88;;;15.48;;
22270;SDS011;11304;53.520;10.104;2022-08-25T05:56:01;21.92;;;15.18;;
22270;SDS011;11304;53.520;10.104;2022-08-25T05:58:28;30.70;;;16.33;;
22270;SDS011;11304;53.520;10.104;2022-08-25T06:00:55;18.73;;;15.23;;
22270;SDS011;11304;53.520;10.104;2022-08-25T06:03:21;24.10;;;16.25;;
22270;SDS011;11304;53.520;10.104;2022-08-25T06:05:47;21.88;;;15.60;;
22270;SDS011;11304;53.520;10.104;2022-08-25T06:08:14;20.20;;;15.25;;
22270;SDS011;11304;53.520;10.104;2022-08-25T06:10:41;43.05;;;17.50;;
22270;SDS011;11304;53.520;10.104;2022-08-25T06:13:07;20.77;;;15.95;;
22270;SDS011;11304;53.520;10.104;2022-08-25T06:15:33;23.08;;;16.20;;
22270;SDS011;11304;53.520;10.104;2022-08-25T06:18:00;26.83;;;15.90;;
22270;SDS011;11304;53.520;10.104;2022-08-25T06:20:27;22.75;;;16.20;;
22270;SDS011;11304;53.520;10.104;2022-08-25T06:22:55;21.20;;;16.77;;
22270;SDS011;11304;53.520;10.104;2022-08-25T06:25:22;23.20;;;16.35;;
22270;SDS011;11304;53.520;10.104;2022-08-25T06:27:49;21.15;;;17.23;;
22270;SDS011;11304;53.520;10.104;2022-08-25T06:30:18;23.38;;;17.40;;
22270;SDS011;11304;53.520;10.104;2022-08-25T06:35:11;25.50;;;16.35;;
22270;SDS011;11304;53.520;10.104;2022-08-25T06:37:38;23.83;;;18.08;;
22270;SDS011;11304;53.520;10.104;2022-08-25T06:40:06;26.75;;;19.30;;
22270;SDS011;11304;53.520;10.104;2022-08-25T06:42:33;63.45;;;19.55;;
22270;SDS011;11304;53.520;10.104;2022-08-25T06:44:59;23.88;;;18.15;;
22270;SDS011;11304;53.520;10.104;2022-08-25T06:47:25;24.50;;;18.13;;
22270;SDS011;11304;53.520;10.104;2022-08-25T06:49:52;26.00;;;18.65;;
22270;SDS011;11304;53.520;10.104;2022-08-25T06:52:18;22.42;;;17.75;;
22270;SDS011;11304;53.520;10.104;2022-08-25T06:54:44;19.42;;;16.60;;
22270;SDS011;11304;53.520;10.104;2022-08-25T06:57:10;21.08;;;16.45;;
22270;SDS011;11304;53.520;10.104;2022-08-25T06:59:36;20.27;;;17.15;;
22270;SDS011;11304;53.520;10.104;2022-08-25T07:02:03;20.92;;;17.65;;
22270;SDS011;11304;53.520;10.104;2022-08-25T07:04:30;22.42;;;17.60;;
22270;SDS011;11304;53.520;10.104;2022-08-25T07:06:56;20.88;;;17.80;;
22270;SDS011;11304;53.520;10.104;2022-08-25T07:09:23;21.33;;;18.13;;
22270;SDS011;11304;53.520;10.104;2022-08-25T07:11:49;23.17;;;18.42;;
22270;SDS011;11304;53.520;10.104;2022-08-25T07:14:16;35.78;;;19.38;;
22270;SDS011;11304;53.520;10.104;2022-08-25T07:16:42;22.45;;;18.02;;
22270;SDS011;11304;53.520;10.104;2022-08-25T07:19:09;20.23;;;16.63;;
22270;SDS011;11304;53.520;10.104;2022-08-25T07:21:36;21.50;;;17.35;;
22270;SDS011;11304;53.520;10.104;2022-08-25T07:24:10;18.73;;;16.50;;
22270;SDS011;11304;53.520;10.104;2022-08-25T07:26:37;39.95;;;17.23;;
22270;SDS011;11304;53.520;10.104;2022-08-25T07:29:16;18.83;;;16.50;;
22270;SDS011;11304;53.520;10.104;2022-08-25T07:31:43;39.92;;;17.05;;
22270;SDS011;11304;53.520;10.104;2022-08-25T07:34:10;24.85;;;16.13;;
22270;SDS011;11304;53.520;10.104;2022-08-25T07:36:55;17.85;;;14.68;;
22270;SDS011;11304;53.520;10.104;2022-08-25T07:39:21;19.20;;;15.38;;
22270;SDS011;11304;53.520;10.104;2022-08-25T07:41:48;23.50;;;15.18;;
22270;SDS011;11304;53.520;10.104;2022-08-25T07:44:15;20.23;;;14.40;;
22270;SDS011;11304;53.520;10.104;2022-08-25T07:46:41;20.92;;;14.45;;
22270;SDS011;11304;53.520;10.104;2022-08-25T07:49:07;17.42;;;14.77;;
22270;SDS011;11304;53.520;10.104;2022-08-25T07:51:33;18.27;;;13.30;;
22270;SDS011;11304;53.520;10.104;2022-08-25T07:53:59;20.38;;;14.68;;
22270;SDS011;11304;53.520;10.104;2022-08-25T07:56:25;17.38;;;14.43;;
22270;SDS011;11304;53.520;10.104;2022-08-25T07:58:51;17.05;;;14.77;;
22270;SDS011;11304;53.520;10.104;2022-08-25T08:01:21;29.13;;;16.67;;
22270;SDS011;11304;53.520;10.104;2022-08-25T08:03:48;17.80;;;14.98;;
22270;SDS011;11304;53.520;10.104;2022-08-25T08:06:16;18.88;;;15.73;;
22270;SDS011;11304;53.520;10.104;2022-08-25T08:08:43;17.90;;;15.23;;
22270;SDS011;11304;53.520;10.104;2022-08-25T08:13:42;20.15;;;15.38;;
22270;SDS011;11304;53.520;10.104;2022-08-25T08:16:09;32.78;;;15.65;;
22270;SDS011;11304;53.520;10.104;2022-08-25T08:18:35;33.65;;;15.82;;
22270;SDS011;11304;53.520;10.104;2022-08-25T08:21:01;24.67;;;14.63;;
22270;SDS011;11304;53.520;10.104;2022-08-25T08:23:28;15.82;;;12.73;;
22270;SDS011;11304;53.520;10.104;2022-08-25T08:25:54;23.67;;;13.50;;
22270;SDS011;11304;53.520;10.104;2022-08-25T08:28:20;15.10;;;13.32;;
22270;SDS011;11304;53.520;10.104;2022-08-25T08:30:47;20.20;;;13.38;;
22270;SDS011;11304;53.520;10.104;2022-08-25T08:33:14;46.80;;;15.98;;
22270;SDS011;11304;53.520;10.104;2022-08-25T08:35:40;22.42;;;16.13;;
22270;SDS011;11304;53.520;10.104;2022-08-25T08:38:06;16.77;;;14.40;;
22270;SDS011;11304;53.520;10.104;2022-08-25T08:40:40;27.10;;;16.45;;
22270;SDS011;11304;53.520;10.104;2022-08-25T08:43:30;20.20;;;15.18;;
22270;SDS011;11304;53.520;10.104;2022-08-25T08:45:56;24.73;;;16.33;;
22270;SDS011;11304;53.520;10.104;2022-08-25T08:56:28;19.95;;;15.95;;
22270;SDS011;11304;53.520;10.104;2022-08-25T08:58:57;23.77;;;15.75;;
22270;SDS011;11304;53.520;10.104;2022-08-25T09:03:55;19.52;;;15.88;;
22270;SDS011;11304;53.520;10.104;2022-08-25T09:06:25;24.02;;;15.65;;
22270;SDS011;11304;53.520;10.104;2022-08-25T09:08:53;20.60;;;15.48;;
22270;SDS011;11304;53.520;10.104;2022-08-25T09:11:22;26.85;;;15.05;;
22270;SDS011;11304;53.520;10.104;2022-08-25T09:16:39;33.85;;;14.85;;
22270;SDS011;11304;53.520;10.104;2022-08-25T09:22:09;17.63;;;13.55;;
22270;SDS011;11304;53.520;10.104;2022-08-25T09:27:09;28.23;;;13.02;;
22270;SDS011;11304;53.520;10.104;2022-08-25T09:30:20;21.52;;;12.52;;
22270;SDS011;11304;53.520;10.104;2022-08-25T09:32:27;16.30;;;12.10;;
22270;SDS011;11304;53.520;10.104;2022-08-25T09:34:55;22.30;;;11.73;;
22270;SDS011;11304;53.520;10.104;2022-08-25T09:37:21;16.85;;;11.32;;
22270;SDS011;11304;53.520;10.104;2022-08-25T09:39:49;23.30;;;10.77;;
22270;SDS011;11304;53.520;10.104;2022-08-25T09:42:15;16.75;;;10.90;;
22270;SDS011;11304;53.520;10.104;2022-08-25T09:44:43;13.13;;;10.15;;
22270;SDS011;11304;53.520;10.104;2022-08-25T09:47:23;18.45;;;10.60;;
22270;SDS011;11304;53.520;10.104;2022-08-25T09:49:56;14.10;;;9.88;;
22270;SDS011;11304;53.520;10.104;2022-08-25T09:54:51;13.15;;;9.70;;
22270;SDS011;11304;53.520;10.104;2022-08-25T09:57:43;25.08;;;9.57;;
22270;SDS011;11304;53.520;10.104;2022-08-25T10:00:27;10.68;;;8.93;;
22270;SDS011;11304;53.520;10.104;2022-08-25T10:03:01;22.10;;;9.88;;
22270;SDS011;11304;53.520;10.104;2022-08-25T10:05:28;13.00;;;8.57;;
22270;SDS011;11304;53.520;10.104;2022-08-25T10:07:59;16.15;;;8.80;;
22270;SDS011;11304;53.520;10.104;2022-08-25T10:10:31;16.95;;;8.73;;
22270;SDS011;11304;53.520;10.104;2022-08-25T10:12:57;14.35;;;8.65;;
22270;SDS011;11304;53.520;10.104;2022-08-25T10:15:31;12.07;;;7.63;;
22270;SDS011;11304;53.520;10.104;2022-08-25T10:20:43;10.82;;;6.68;;
22270;SDS011;11304;53.520;10.104;2022-08-25T10:23:25;9.77;;;7.30;;
22270;SDS011;11304;53.520;10.104;2022-08-25T10:25:52;16.65;;;7.05;;
22270;SDS011;11304;53.520;10.104;2022-08-25T10:28:27;10.13;;;6.32;;
22270;SDS011;11304;53.520;10.104;2022-08-25T10:33:28;14.00;;;6.53;;
22270;SDS011;11304;53.520;10.104;2022-08-25T10:36:02;19.48;;;7.55;;
22270;SDS011;11304;53.520;10.104;2022-08-25T10:41:45;8.40;;;6.35;;
22270;SDS011;11304;53.520;10.104;2022-08-25T10:47:10;10.25;;;6.18;;
22270;SDS011;11304;53.520;10.104;2022-08-25T10:49:50;19.27;;;5.38;;
22270;SDS011;11304;53.520;10.104;2022-08-25T10:52:20;22.00;;;4.70;;
22270;SDS011;11304;53.520;10.104;2022-08-25T10:54:52;14.40;;;5.18;;
22270;SDS011;11304;53.520;10.104;2022-08-25T10:59:57;5.88;;;4.07;;
22270;SDS011;11304;53.520;10.104;2022-08-25T11:07:34;11.20;;;4.80;;
22270;SDS011;11304;53.520;10.104;2022-08-25T11:10:04;18.73;;;5.43;;
22270;SDS011;11304;53.520;10.104;2022-08-25T11:12:32;10.35;;;5.20;;
22270;SDS011;11304;53.520;10.104;2022-08-25T11:15:06;6.50;;;4.32;;
22270;SDS011;11304;53.520;10.104;2022-08-25T11:17:38;9.40;;;3.97;;
22270;SDS011;11304;53.520;10.104;2022-08-25T11:20:07;9.73;;;4.68;;
22270;SDS011;11304;53.520;10.104;2022-08-25T11:23:00;11.00;;;4.32;;
22270;SDS011;11304;53.520;10.104;2022-08-25T11:25:27;7.28;;;3.85;;
22270;SDS011;11304;53.520;10.104;2022-08-25T11:27:56;6.35;;;4.18;;
22270;SDS011;11304;53.520;10.104;2022-08-25T11:32:49;11.18;;;5.30;;
22270;SDS011;11304;53.520;10.104;2022-08-25T11:35:26;17.02;;;5.47;;
22270;SDS011;11304;53.520;10.104;2022-08-25T11:50:36;9.60;;;3.88;;
22270;SDS011;11304;53.520;10.104;2022-08-25T11:55:53;15.15;;;4.30;;
22270;SDS011;11304;53.520;10.104;2022-08-25T11:58:24;9.60;;;4.40;;
22270;SDS011;11304;53.520;10.104;2022-08-25T12:00:52;9.23;;;4.10;;
22270;SDS011;11304;53.520;10.104;2022-08-25T12:14:15;7.50;;;3.53;;
22270;SDS011;11304;53.520;10.104;2022-08-25T12:16:58;12.30;;;3.80;;
22270;SDS011;11304;53.520;10.104;2022-08-25T12:21:57;12.35;;;3.60;;
22270;SDS011;11304;53.520;10.104;2022-08-25T12:32:38;8.45;;;3.55;;
22270;SDS011;11304;53.520;10.104;2022-08-25T12:37:59;9.15;;;3.58;;
22270;SDS011;11304;53.520;10.104;2022-08-25T12:40:31;8.80;;;3.60;;
22270;SDS011;11304;53.520;10.104;2022-08-25T12:43:31;9.05;;;3.53;;
22270;SDS011;11304;53.520;10.104;2022-08-25T12:45:51;9.63;;;3.47;;
22270;SDS011;11304;53.520;10.104;2022-08-25T12:58:32;6.55;;;3.58;;
22270;SDS011;11304;53.520;10.104;2022-08-25T13:11:48;13.25;;;3.80;;
22270;SDS011;11304;53.520;10.104;2022-08-25T13:16:51;8.20;;;4.07;;
22270;SDS011;11304;53.520;10.104;2022-08-25T13:19:18;13.10;;;3.58;;
22270;SDS011;11304;53.520;10.104;2022-08-25T13:21:44;11.35;;;4.30;;
22270;SDS011;11304;53.520;10.104;2022-08-25T13:24:14;16.40;;;4.53;;
22270;SDS011;11304;53.520;10.104;2022-08-25T13:26:42;20.83;;;4.80;;
22270;SDS011;11304;53.520;10.104;2022-08-25T13:29:14;14.88;;;3.88;;
22270;SDS011;11304;53.520;10.104;2022-08-25T13:31:54;9.57;;;3.55;;
22270;SDS011;11304;53.520;10.104;2022-08-25T13:34:25;6.68;;;3.15;;
22270;SDS011;11304;53.520;10.104;2022-08-25T13:36:52;9.43;;;3.50;;
22270;SDS011;11304;53.520;10.104;2022-08-25T13:39:37;13.90;;;3.67;;
22270;SDS011;11304;53.520;10.104;2022-08-25T13:42:04;12.02;;;3.53;;
22270;SDS011;11304;53.520;10.104;2022-08-25T13:44:34;17.55;;;4.32;;
22270;SDS011;11304;53.520;10.104;2022-08-25T13:50:06;13.73;;;3.65;;
22270;SDS011;11304;53.520;10.104;2022-08-25T13:52:38;16.60;;;4.50;;
22270;SDS011;11304;53.520;10.104;2022-08-25T13:55:05;10.88;;;3.80;;
22270;SDS011;11304;53.520;10.104;2022-08-25T13:57:31;8.23;;;3.80;;
22270;SDS011;11304;53.520;10.104;2022-08-25T14:00:06;26.30;;;5.40;;
22270;SDS011;11304;53.520;10.104;2022-08-25T14:05:08;7.85;;;3.78;;
22270;SDS011;11304;53.520;10.104;2022-08-25T14:07:35;15.13;;;4.05;;
22270;SDS011;11304;53.520;10.104;2022-08-25T14:10:06;21.70;;;4.30;;
22270;SDS011;11304;53.520;10.104;2022-08-25T14:12:40;8.90;;;4.15;;
22270;SDS011;11304;53.520;10.104;2022-08-25T14:17:33;9.77;;;4.13;;
22270;SDS011;11304;53.520;10.104;2022-08-25T14:19:59;7.80;;;3.55;;
22270;SDS011;11304;53.520;10.104;2022-08-25T14:22:26;15.98;;;4.72;;
22270;SDS011;11304;53.520;10.104;2022-08-25T14:24:52;15.55;;;4.55;;
22270;SDS011;11304;53.520;10.104;2022-08-25T14:27:19;9.80;;;3.90;;
22270;SDS011;11304;53.520;10.104;2022-08-25T14:29:45;8.50;;;4.13;;
22270;SDS011;11304;53.520;10.104;2022-08-25T14:32:11;10.70;;;4.68;;
22270;SDS011;11304;53.520;10.104;2022-08-25T14:34:39;7.60;;;3.85;;
22270;SDS011;11304;53.520;10.104;2022-08-25T14:37:16;12.43;;;4.30;;
22270;SDS011;11304;53.520;10.104;2022-08-25T14:39:43;14.50;;;4.70;;
22270;SDS011;11304;53.520;10.104;2022-08-25T14:42:09;15.57;;;3.78;;
22270;SDS011;11304;53.520;10.104;2022-08-25T14:44:35;6.43;;;3.75;;
22270;SDS011;11304;53.520;10.104;2022-08-25T14:47:02;11.25;;;3.97;;
22270;SDS011;11304;53.520;10.104;2022-08-25T14:49:29;12.30;;;4.80;;
22270;SDS011;11304;53.520;10.104;2022-08-25T14:52:08;9.25;;;4.30;;
22270;SDS011;11304;53.520;10.104;2022-08-25T14:54:36;10.70;;;4.18;;
22270;SDS011;11304;53.520;10.104;2022-08-25T14:57:02;8.98;;;4.20;;
22270;SDS011;11304;53.520;10.104;2022-08-25T14:59:28;7.15;;;3.95;;
22270;SDS011;11304;53.520;10.104;2022-08-25T15:01:55;6.20;;;3.47;;
22270;SDS011;11304;53.520;10.104;2022-08-25T15:04:22;7.80;;;3.88;;
22270;SDS011;11304;53.520;10.104;2022-08-25T15:06:54;5.93;;;3.78;;
22270;SDS011;11304;53.520;10.104;2022-08-25T15:09:21;6.97;;;3.33;;
22270;SDS011;11304;53.520;10.104;2022-08-25T15:11:48;10.77;;;4.50;;
22270;SDS011;11304;53.520;10.104;2022-08-25T15:14:15;14.73;;;4.45;;
22270;SDS011;11304;53.520;10.104;2022-08-25T15:16:47;12.27;;;4.17;;
22270;SDS011;11304;53.520;10.104;2022-08-25T15:19:14;6.80;;;3.83;;
22270;SDS011;11304;53.520;10.104;2022-08-25T15:21:41;11.93;;;3.88;;
22270;SDS011;11304;53.520;10.104;2022-08-25T15:24:08;10.85;;;4.22;;
22270;SDS011;11304;53.520;10.104;2022-08-25T15:26:41;8.10;;;3.75;;
22270;SDS011;11304;53.520;10.104;2022-08-25T15:29:08;6.82;;;3.67;;
22270;SDS011;11304;53.520;10.104;2022-08-25T15:31:35;8.02;;;3.45;;
22270;SDS011;11304;53.520;10.104;2022-08-25T15:34:02;6.57;;;4.23;;
22270;SDS011;11304;53.520;10.104;2022-08-25T15:36:28;7.25;;;3.63;;
22270;SDS011;11304;53.520;10.104;2022-08-25T15:38:55;7.55;;;3.78;;
22270;SDS011;11304;53.520;10.104;2022-08-25T15:41:21;8.18;;;4.03;;
22270;SDS011;11304;53.520;10.104;2022-08-25T15:43:47;6.13;;;3.30;;
22270;SDS011;11304;53.520;10.104;2022-08-25T15:46:15;7.05;;;3.83;;
22270;SDS011;11304;53.520;10.104;2022-08-25T15:48:42;6.40;;;3.90;;
22270;SDS011;11304;53.520;10.104;2022-08-25T15:51:08;9.43;;;4.03;;
22270;SDS011;11304;53.520;10.104;2022-08-25T15:53:36;7.47;;;3.83;;
22270;SDS011;11304;53.520;10.104;2022-08-25T15:56:06;8.10;;;3.97;;
22270;SDS011;11304;53.520;10.104;2022-08-25T15:58:32;9.45;;;3.78;;
22270;SDS011;11304;53.520;10.104;2022-08-25T16:00:59;5.57;;;3.40;;
22270;SDS011;11304;53.520;10.104;2022-08-25T16:03:25;9.02;;;4.05;;
22270;SDS011;11304;53.520;10.104;2022-08-25T16:05:52;7.40;;;3.92;;
22270;SDS011;11304;53.520;10.104;2022-08-25T16:08:18;9.52;;;3.60;;
22270;SDS011;11304;53.520;10.104;2022-08-25T16:10:44;5.82;;;3.70;;
22270;SDS011;11304;53.520;10.104;2022-08-25T16:13:10;14.43;;;4.53;;
22270;SDS011;11304;53.520;10.104;2022-08-25T16:15:37;7.97;;;3.47;;
22270;SDS011;11304;53.520;10.104;2022-08-25T16:18:04;7.15;;;3.65;;
22270;SDS011;11304;53.520;10.104;2022-08-25T16:20:31;6.10;;;3.83;;
22270;SDS011;11304;53.520;10.104;2022-08-25T16:22:57;7.68;;;3.95;;
22270;SDS011;11304;53.520;10.104;2022-08-25T16:27:52;8.80;;;4.13;;
22270;SDS011;11304;53.520;10.104;2022-08-25T16:30:18;10.35;;;4.32;;
22270;SDS011;11304;53.520;10.104;2022-08-25T16:32:45;10.65;;;3.55;;
22270;SDS011;11304;53.520;10.104;2022-08-25T16:35:12;9.68;;;4.10;;
22270;SDS011;11304;53.520;10.104;2022-08-25T16:37:38;8.43;;;4.05;;